createdAt,value
2017-09-13T00:00:15.844Z,10.40
2017-09-13T00:02:43.373Z,10.40
2017-09-13T00:05:10.916Z,10.40
2017-09-13T00:07:39.203Z,10.50
2017-09-13T00:10:06.747Z,10.40
2017-09-13T00:12:35.029Z,10.40
2017-09-13T00:15:03.337Z,10.40
2017-09-13T00:17:30.850Z,10.40
2017-09-13T00:19:59.159Z,10.50
2017-09-13T00:22:26.674Z,10.50
2017-09-13T00:24:54.210Z,10.50
2017-09-13T00:27:21.730Z,10.50
2017-09-13T00:29:49.267Z,10.60
2017-09-13T00:32:16.795Z,10.60
2017-09-13T00:34:44.335Z,10.50
2017-09-13T00:37:12.614Z,10.60
2017-09-13T00:39:40.920Z,10.60
2017-09-13T00:42:08.438Z,10.60
2017-09-13T00:44:36.744Z,10.70
2017-09-13T00:47:04.263Z,10.70
2017-09-13T00:49:31.806Z,10.70
2017-09-13T00:51:59.322Z,10.70
2017-09-13T00:54:26.858Z,10.70
2017-09-13T00:56:55.141Z,10.70
2017-09-13T00:59:23.471Z,10.70
2017-09-13T01:01:50.990Z,10.70
2017-09-13T01:04:18.525Z,10.60
2017-09-13T01:06:46.046Z,10.70
2017-09-13T01:09:13.590Z,10.70
2017-09-13T01:11:41.879Z,10.60
2017-09-13T01:14:09.417Z,10.60
2017-09-13T01:16:37.698Z,10.50
2017-09-13T01:19:06.023Z,10.50
2017-09-13T01:21:33.545Z,10.50
2017-09-13T01:24:01.091Z,10.50
2017-09-13T01:26:29.380Z,10.50
2017-09-13T01:28:57.687Z,10.50
2017-09-13T01:31:25.206Z,10.40
2017-09-13T01:33:53.490Z,10.40
2017-09-13T01:36:21.790Z,10.30
2017-09-13T01:38:49.306Z,10.30
2017-09-13T01:41:16.839Z,10.30
2017-09-13T01:43:44.359Z,10.30
2017-09-13T01:46:11.896Z,10.30
2017-09-13T01:48:40.187Z,10.30
2017-09-13T01:51:08.495Z,10.30
2017-09-13T01:53:36.018Z,10.40
2017-09-13T01:56:04.327Z,10.30
2017-09-13T01:58:31.847Z,10.30
2017-09-13T02:01:00.146Z,10.30
2017-09-13T02:03:27.667Z,10.30
2017-09-13T02:05:55.208Z,10.30
2017-09-13T02:08:22.730Z,10.20
2017-09-13T02:10:50.271Z,10.20
2017-09-13T02:13:18.558Z,10.20
2017-09-13T02:15:46.099Z,10.20
2017-09-13T02:18:14.383Z,10.30
2017-09-13T02:20:42.689Z,10.20
2017-09-13T02:23:10.216Z,10.20
2017-09-13T02:25:37.754Z,10.20
2017-09-13T02:28:05.276Z,10.10
2017-09-13T02:30:32.811Z,10.10
2017-09-13T02:33:00.331Z,10.10
2017-09-13T02:35:27.867Z,10.00
2017-09-13T02:37:56.152Z,10.00
2017-09-13T02:40:24.464Z,10.00
2017-09-13T02:42:51.987Z,10.00
2017-09-13T02:45:20.290Z,9.90
2017-09-13T02:47:47.802Z,9.90
2017-09-13T02:50:15.341Z,9.90
2017-09-13T02:52:42.862Z,10.00
2017-09-13T02:55:10.393Z,10.00
2017-09-13T02:57:38.681Z,10.00
2017-09-13T03:00:06.986Z,10.10
2017-09-13T03:02:34.494Z,10.00
2017-09-13T03:05:02.032Z,10.00
2017-09-13T03:07:29.553Z,10.10
2017-09-13T03:09:57.087Z,10.10
2017-09-13T03:12:25.370Z,10.10
2017-09-13T03:14:53.671Z,10.10
2017-09-13T03:17:21.191Z,10.10
2017-09-13T03:19:48.730Z,10.10
2017-09-13T03:22:16.256Z,10.10
2017-09-13T03:24:43.791Z,10.10
2017-09-13T03:27:12.072Z,10.10
2017-09-13T03:29:39.611Z,10.10
2017-09-13T03:32:07.139Z,10.10
2017-09-13T03:34:34.675Z,10.10
2017-09-13T03:37:02.201Z,10.10
2017-09-13T03:39:30.490Z,10.10
2017-09-13T03:41:58.025Z,10.10
2017-09-13T03:44:25.543Z,10.10
2017-09-13T03:46:53.073Z,10.10
2017-09-13T03:49:20.591Z,10.10
2017-09-13T03:51:48.130Z,10.20
2017-09-13T03:54:15.650Z,10.20
2017-09-13T03:56:43.194Z,10.20
2017-09-13T03:59:11.478Z,10.30
2017-09-13T04:01:39.782Z,10.30
2017-09-13T04:04:07.298Z,10.30
2017-09-13T04:06:34.834Z,10.30
2017-09-13T04:09:02.366Z,10.40
2017-09-13T04:11:29.902Z,10.40
2017-09-13T04:13:57.422Z,10.50
2017-09-13T04:16:24.961Z,10.60
2017-09-13T04:18:52.483Z,10.60
2017-09-13T04:21:20.025Z,10.60
2017-09-13T04:23:48.306Z,10.70
2017-09-13T04:26:16.610Z,10.70
2017-09-13T04:28:44.901Z,10.70
2017-09-13T04:31:13.206Z,10.80
2017-09-13T04:33:40.725Z,10.80
2017-09-13T04:36:09.038Z,10.80
2017-09-13T04:38:36.555Z,10.80
2017-09-13T04:41:04.095Z,10.90
2017-09-13T04:43:31.619Z,10.90
2017-09-13T04:45:59.164Z,11.00
2017-09-13T04:48:26.686Z,11.00
2017-09-13T04:50:54.233Z,11.00
2017-09-13T04:53:21.762Z,11.10
2017-09-13T04:55:49.323Z,11.10
2017-09-13T04:58:16.842Z,11.20
2017-09-13T05:00:45.130Z,11.20
2017-09-13T05:03:12.675Z,11.20
2017-09-13T05:05:40.200Z,11.20
2017-09-13T05:08:07.733Z,11.20
2017-09-13T05:10:35.250Z,11.30
2017-09-13T05:13:02.790Z,11.40
2017-09-13T05:15:30.312Z,11.30
2017-09-13T05:17:57.853Z,11.30
2017-09-13T05:20:25.382Z,11.40
2017-09-13T05:22:52.930Z,11.40
2017-09-13T05:25:20.450Z,11.50
2017-09-13T05:27:47.970Z,11.50
2017-09-13T05:30:16.282Z,11.60
2017-09-13T05:32:43.805Z,11.50
2017-09-13T05:35:11.343Z,11.60
2017-09-13T05:37:38.856Z,11.60
2017-09-13T05:40:06.394Z,11.50
2017-09-13T05:42:33.910Z,11.50
2017-09-13T05:45:01.450Z,11.50
2017-09-13T05:47:29.730Z,11.50
2017-09-13T05:49:58.035Z,11.60
2017-09-13T05:52:25.550Z,11.60
2017-09-13T05:54:53.098Z,11.60
2017-09-13T05:57:20.621Z,11.50
2017-09-13T05:59:48.142Z,11.50
2017-09-13T06:02:16.447Z,11.50
2017-09-13T06:04:43.966Z,11.50
2017-09-13T06:07:11.506Z,11.50
2017-09-13T06:09:39.037Z,11.50
2017-09-13T06:12:06.578Z,11.60
2017-09-13T06:14:34.094Z,11.60
2017-09-13T06:17:01.631Z,11.70
2017-09-13T06:19:29.919Z,11.70
2017-09-13T06:21:58.227Z,11.70
2017-09-13T06:24:25.748Z,11.70
2017-09-13T06:26:54.055Z,11.70
2017-09-13T06:29:21.583Z,11.70
2017-09-13T06:31:49.887Z,11.70
2017-09-13T06:34:18.171Z,11.80
2017-09-13T06:36:45.705Z,11.70
2017-09-13T06:39:13.227Z,11.80
2017-09-13T06:41:40.768Z,11.70
2017-09-13T06:44:08.298Z,11.60
2017-09-13T06:46:35.846Z,11.60
2017-09-13T06:49:04.133Z,11.40
2017-09-13T06:51:32.452Z,11.30
2017-09-13T06:53:59.966Z,11.30
2017-09-13T06:56:28.268Z,11.20
2017-09-13T06:58:55.807Z,11.20
2017-09-13T07:01:24.138Z,11.10
2017-09-13T07:03:51.682Z,11.10
2017-09-13T07:06:19.204Z,11.20
2017-09-13T07:08:47.515Z,11.10
2017-09-13T07:11:15.036Z,11.10
2017-09-13T07:13:43.339Z,11.10
2017-09-13T07:16:10.864Z,11.10
2017-09-13T07:18:38.407Z,11.10
2017-09-13T07:21:06.695Z,11.10
2017-09-13T07:23:34.256Z,11.10
2017-09-13T07:26:01.775Z,11.20
2017-09-13T07:28:29.298Z,11.20
2017-09-13T07:30:56.843Z,11.30
2017-09-13T07:33:24.367Z,11.30
2017-09-13T07:35:51.912Z,11.30
2017-09-13T07:38:19.432Z,11.30
2017-09-13T07:40:46.974Z,11.30
2017-09-13T07:43:14.492Z,11.30
2017-09-13T07:45:42.031Z,11.30
2017-09-13T07:48:09.551Z,11.30
2017-09-13T07:50:37.089Z,11.30
2017-09-13T07:53:05.377Z,11.30
2017-09-13T07:55:33.695Z,11.30
2017-09-13T07:58:01.215Z,11.30
2017-09-13T08:00:29.502Z,11.30
2017-09-13T08:02:57.040Z,11.30
2017-09-13T08:05:25.327Z,11.40
2017-09-13T08:07:53.627Z,11.40
2017-09-13T08:10:21.142Z,11.40
2017-09-13T08:12:48.678Z,11.40
2017-09-13T08:15:16.204Z,11.40
2017-09-13T08:17:43.739Z,11.50
2017-09-13T08:20:12.027Z,11.60
2017-09-13T08:22:40.328Z,11.70
2017-09-13T08:25:07.850Z,11.70
2017-09-13T08:27:36.168Z,11.80
2017-09-13T08:30:03.696Z,11.80
2017-09-13T08:32:31.218Z,11.80
2017-09-13T08:34:58.749Z,11.90
2017-09-13T08:37:26.270Z,11.90
2017-09-13T08:39:53.807Z,12.00
2017-09-13T08:42:22.087Z,12.10
2017-09-13T08:44:50.386Z,12.20
2017-09-13T08:47:17.907Z,12.10
2017-09-13T08:49:45.452Z,12.30
2017-09-13T08:52:12.975Z,12.30
2017-09-13T08:54:40.520Z,12.40
2017-09-13T08:57:08.037Z,12.40
2017-09-13T08:59:35.565Z,12.40
2017-09-13T09:02:03.861Z,12.40
2017-09-13T09:04:31.386Z,12.40
2017-09-13T09:06:58.925Z,12.50
2017-09-13T09:09:26.447Z,12.70
2017-09-13T09:11:54.746Z,12.80
2017-09-13T09:14:22.266Z,12.80
2017-09-13T09:16:49.807Z,12.90
2017-09-13T09:19:17.322Z,12.90
2017-09-13T09:21:44.857Z,12.90
2017-09-13T09:24:13.146Z,12.90
2017-09-13T09:26:41.459Z,12.90
2017-09-13T09:29:08.977Z,12.90
2017-09-13T09:31:37.284Z,13.00
2017-09-13T09:34:04.835Z,12.90
2017-09-13T09:36:32.358Z,13.00
2017-09-13T09:38:59.907Z,13.00
2017-09-13T09:41:27.427Z,13.00
2017-09-13T09:43:54.961Z,13.00
2017-09-13T09:46:23.247Z,13.00
2017-09-13T09:48:50.795Z,13.00
2017-09-13T09:51:18.310Z,13.00
2017-09-13T09:53:46.612Z,12.90
2017-09-13T09:56:14.131Z,12.90
2017-09-13T09:58:42.458Z,12.90
2017-09-13T10:01:09.984Z,12.80
2017-09-13T10:03:37.516Z,12.80
2017-09-13T10:06:05.063Z,12.80
2017-09-13T10:08:32.583Z,12.90
2017-09-13T10:11:00.123Z,12.80
2017-09-13T10:13:28.406Z,12.90
2017-09-13T10:15:56.718Z,12.90
2017-09-13T10:18:24.231Z,12.90
2017-09-13T10:20:52.530Z,13.10
2017-09-13T10:23:20.818Z,13.20
2017-09-13T10:25:49.126Z,13.20
2017-09-13T10:28:16.646Z,13.20
2017-09-13T10:30:44.951Z,13.20
2017-09-13T10:33:12.471Z,13.20
2017-09-13T10:35:39.991Z,13.20
2017-09-13T10:38:07.521Z,13.20
2017-09-13T10:40:35.047Z,13.30
2017-09-13T10:43:02.587Z,13.30
2017-09-13T10:45:30.111Z,13.30
2017-09-13T10:47:57.663Z,13.30
2017-09-13T10:50:25.182Z,13.30
2017-09-13T10:52:52.733Z,13.30
2017-09-13T10:55:20.262Z,13.20
2017-09-13T10:57:47.805Z,13.20
2017-09-13T11:00:15.322Z,13.20
2017-09-13T11:02:42.863Z,13.20
2017-09-13T11:05:11.152Z,13.20
2017-09-13T11:07:39.465Z,13.30
2017-09-13T11:10:06.991Z,13.30
2017-09-13T11:12:35.270Z,13.40
2017-09-13T11:15:03.581Z,13.40
2017-09-13T11:17:31.094Z,13.40
2017-09-13T11:19:58.639Z,13.50
2017-09-13T11:22:26.163Z,13.50
2017-09-13T11:24:53.699Z,13.60
2017-09-13T11:27:21.219Z,13.60
2017-09-13T11:29:48.775Z,13.60
2017-09-13T11:32:16.295Z,13.60
2017-09-13T11:34:43.847Z,13.70
2017-09-13T11:37:12.130Z,13.70
2017-09-13T11:39:39.646Z,13.70
2017-09-13T11:42:07.189Z,13.70
2017-09-13T11:44:35.476Z,13.80
2017-09-13T11:47:03.014Z,13.80
2017-09-13T11:49:31.303Z,13.90
2017-09-13T11:51:59.614Z,14.00
2017-09-13T11:54:27.130Z,14.00
2017-09-13T11:56:55.515Z,14.00
2017-09-13T11:59:23.811Z,14.20
2017-09-13T12:01:51.372Z,14.20
2017-09-13T12:04:18.897Z,14.30
2017-09-13T12:06:46.418Z,14.30
2017-09-13T12:09:13.962Z,14.40
2017-09-13T12:11:41.482Z,14.40
2017-09-13T12:14:09.022Z,14.40
2017-09-13T12:16:36.544Z,14.50
2017-09-13T12:19:04.087Z,14.60
2017-09-13T12:21:31.610Z,14.70
2017-09-13T12:23:59.154Z,14.70
2017-09-13T12:26:26.676Z,14.70
2017-09-13T12:28:54.218Z,14.80
2017-09-13T12:31:21.738Z,14.90
2017-09-13T12:33:49.566Z,14.90
2017-09-13T12:36:17.091Z,15.00
2017-09-13T12:38:45.379Z,15.00
2017-09-13T12:41:12.922Z,15.00
2017-09-13T12:43:41.210Z,15.20
2017-09-13T12:46:09.515Z,15.30
2017-09-13T12:48:37.038Z,15.30
2017-09-13T12:51:05.351Z,15.30
2017-09-13T12:53:32.871Z,15.30
2017-09-13T12:56:01.182Z,15.60
2017-09-13T12:58:28.708Z,15.60
2017-09-13T13:00:56.250Z,16.00
2017-09-13T13:03:24.530Z,16.50
2017-09-13T13:05:52.812Z,16.70
2017-09-13T13:08:20.347Z,16.70
2017-09-13T13:10:48.639Z,17.00
2017-09-13T13:13:16.943Z,17.00
2017-09-13T13:15:44.462Z,17.00
2017-09-13T13:18:11.999Z,16.80
2017-09-13T13:20:39.514Z,16.80
2017-09-13T13:23:07.049Z,16.70
2017-09-13T13:25:35.334Z,16.60
2017-09-13T13:28:03.648Z,16.70
2017-09-13T13:30:31.165Z,16.70
2017-09-13T13:32:59.476Z,17.00
2017-09-13T13:35:26.995Z,16.90
2017-09-13T13:37:55.299Z,17.20
2017-09-13T13:40:22.819Z,17.20
2017-09-13T13:42:50.380Z,17.20
2017-09-13T13:45:17.907Z,17.30
2017-09-13T13:47:45.423Z,17.30
2017-09-13T13:50:13.727Z,17.50
2017-09-13T13:52:41.247Z,17.50
2017-09-13T13:55:09.556Z,17.40
2017-09-13T13:57:37.079Z,17.40
2017-09-13T14:00:04.622Z,17.40
2017-09-13T14:02:32.147Z,17.40
2017-09-13T14:04:59.686Z,17.30
2017-09-13T14:07:27.210Z,17.20
2017-09-13T14:09:54.745Z,17.30
2017-09-13T14:12:23.025Z,17.30
2017-09-13T14:14:51.331Z,17.30
2017-09-13T14:17:18.851Z,17.30
2017-09-13T14:19:47.139Z,17.40
2017-09-13T14:22:15.447Z,17.60
2017-09-13T14:24:42.969Z,17.60
2017-09-13T14:27:11.274Z,18.10
2017-09-13T14:29:38.791Z,18.10
2017-09-13T14:32:06.330Z,18.30
2017-09-13T14:34:33.855Z,18.40
2017-09-13T14:37:01.411Z,18.40
2017-09-13T14:39:28.963Z,18.50
2017-09-13T14:41:56.506Z,18.60
2017-09-13T14:44:24.790Z,18.50
2017-09-13T14:46:53.156Z,18.60
2017-09-13T14:49:20.675Z,18.50
2017-09-13T14:51:48.194Z,18.60
2017-09-13T14:54:15.741Z,18.70
2017-09-13T14:56:44.030Z,18.70
2017-09-13T14:59:12.338Z,18.70
2017-09-13T15:01:39.854Z,18.70
2017-09-13T15:04:08.160Z,18.70
2017-09-13T15:06:35.687Z,18.70
2017-09-13T15:09:03.226Z,18.60
2017-09-13T15:11:30.742Z,18.60
2017-09-13T15:13:58.288Z,18.60
2017-09-13T15:16:25.803Z,18.50
2017-09-13T15:18:53.346Z,18.40
2017-09-13T15:21:20.866Z,18.10
2017-09-13T15:23:48.412Z,18.00
2017-09-13T15:26:16.707Z,17.80
2017-09-13T15:28:44.246Z,17.80
2017-09-13T15:31:12.535Z,17.80
2017-09-13T15:33:40.086Z,17.80
2017-09-13T15:36:07.602Z,17.80
2017-09-13T15:38:35.119Z,17.70
2017-09-13T15:41:02.659Z,17.70
2017-09-13T15:43:30.179Z,17.60
2017-09-13T15:45:57.715Z,17.60
2017-09-13T15:48:25.230Z,17.50
2017-09-13T15:50:53.532Z,17.40
2017-09-13T15:53:21.052Z,17.30
2017-09-13T15:55:49.354Z,17.20
2017-09-13T15:58:16.876Z,17.20
2017-09-13T16:00:45.201Z,17.00
2017-09-13T16:03:12.714Z,17.00
2017-09-13T16:05:41.018Z,16.80
2017-09-13T16:08:08.534Z,16.80
2017-09-13T16:10:36.088Z,16.70
2017-09-13T16:13:03.612Z,16.40
2017-09-13T16:15:31.131Z,16.20
2017-09-13T16:17:59.434Z,15.90
2017-09-13T16:20:26.955Z,15.90
2017-09-13T16:22:54.496Z,15.80
2017-09-13T16:25:22.023Z,15.60
2017-09-13T16:27:49.554Z,15.40
2017-09-13T16:30:17.843Z,15.20
2017-09-13T16:32:45.384Z,15.20
2017-09-13T16:35:13.671Z,14.90
2017-09-13T16:37:41.979Z,14.90
2017-09-13T16:40:09.496Z,14.90
2017-09-13T16:42:37.783Z,14.70
2017-09-13T16:45:06.096Z,14.60
2017-09-13T16:47:33.611Z,14.50
2017-09-13T16:50:01.915Z,14.50
2017-09-13T16:52:29.436Z,14.50
2017-09-13T16:54:56.974Z,14.40
2017-09-13T16:57:24.500Z,14.40
2017-09-13T16:59:52.042Z,14.40
2017-09-13T17:02:19.567Z,14.40
2017-09-13T17:04:47.127Z,14.30
2017-09-13T17:07:14.655Z,14.20
2017-09-13T17:09:42.182Z,14.20
2017-09-13T17:12:09.723Z,14.20
2017-09-13T17:14:38.013Z,14.10
2017-09-13T17:17:06.319Z,14.10
2017-09-13T17:19:33.843Z,14.10
2017-09-13T17:22:02.147Z,14.00
2017-09-13T17:24:29.667Z,14.00
2017-09-13T17:26:57.199Z,14.00
2017-09-13T17:29:24.719Z,14.00
2017-09-13T17:31:52.263Z,13.90
2017-09-13T17:34:19.786Z,13.90
2017-09-13T17:36:47.339Z,13.90
2017-09-13T17:39:14.867Z,13.80
2017-09-13T17:41:42.388Z,13.80
2017-09-13T17:44:10.689Z,13.70
2017-09-13T17:46:38.212Z,13.70
2017-09-13T17:49:06.520Z,13.50
2017-09-13T17:51:34.039Z,13.50
2017-09-13T17:54:01.575Z,13.50
2017-09-13T17:56:29.091Z,13.50
2017-09-13T17:58:56.632Z,13.40
2017-09-13T18:01:24.914Z,13.30
2017-09-13T18:03:53.224Z,13.30
2017-09-13T18:06:20.750Z,13.30
2017-09-13T18:08:49.068Z,13.20
2017-09-13T18:11:16.589Z,13.20
2017-09-13T18:13:44.138Z,13.10
2017-09-13T18:16:12.207Z,13.10
2017-09-13T18:18:39.731Z,13.00
2017-09-13T18:21:07.267Z,12.90
2017-09-13T18:23:34.788Z,12.80
2017-09-13T18:26:02.338Z,12.80
2017-09-13T18:28:29.866Z,12.70
2017-09-13T18:30:57.409Z,12.60
2017-09-13T18:33:24.931Z,12.50
2017-09-13T18:35:52.467Z,12.50
2017-09-13T18:38:20.756Z,12.40
2017-09-13T18:40:48.286Z,12.40
2017-09-13T18:43:15.812Z,12.40
2017-09-13T18:45:43.354Z,12.30
2017-09-13T18:48:10.879Z,12.30
2017-09-13T18:50:39.158Z,12.20
2017-09-13T18:53:07.462Z,12.10
2017-09-13T18:55:34.986Z,12.10
2017-09-13T18:58:03.290Z,12.00
2017-09-13T19:00:30.805Z,12.00
2017-09-13T19:02:58.343Z,12.00
2017-09-13T19:05:25.864Z,11.90
2017-09-13T19:07:53.399Z,11.90
2017-09-13T19:10:21.691Z,11.80
2017-09-13T19:12:50.003Z,11.70
2017-09-13T19:15:17.519Z,11.70
2017-09-13T19:17:45.827Z,11.60
2017-09-13T19:20:13.346Z,11.60
2017-09-13T19:22:41.720Z,11.50
2017-09-13T19:25:09.248Z,11.60
2017-09-13T19:27:36.775Z,11.50
2017-09-13T19:30:04.316Z,11.50
2017-09-13T19:32:32.606Z,11.60
2017-09-13T19:35:00.139Z,11.50
2017-09-13T19:37:27.662Z,11.50
2017-09-13T19:39:55.207Z,11.50
2017-09-13T19:42:22.724Z,11.50
2017-09-13T19:44:51.040Z,11.50
2017-09-13T19:47:18.559Z,11.50
2017-09-13T19:49:46.859Z,11.40
2017-09-13T19:52:14.379Z,11.40
2017-09-13T19:54:41.914Z,11.40
2017-09-13T19:57:09.431Z,11.40
2017-09-13T19:59:37.735Z,11.50
2017-09-13T20:02:05.261Z,11.50
2017-09-13T20:04:33.562Z,11.40
2017-09-13T20:07:01.091Z,11.40
2017-09-13T20:09:29.388Z,11.40
2017-09-13T20:11:57.490Z,11.40
2017-09-13T20:14:25.024Z,11.40
2017-09-13T20:16:52.541Z,11.40
2017-09-13T20:19:20.082Z,11.40
2017-09-13T20:21:47.598Z,11.40
2017-09-13T20:24:15.136Z,11.40
2017-09-13T20:26:43.432Z,11.30
2017-09-13T20:29:10.971Z,11.30
2017-09-13T20:31:38.491Z,11.30
2017-09-13T20:34:06.034Z,11.30
2017-09-13T20:36:33.550Z,11.30
2017-09-13T20:39:01.096Z,11.30
2017-09-13T20:41:28.618Z,11.30
2017-09-13T20:43:56.159Z,11.30
2017-09-13T20:46:23.682Z,11.30
2017-09-13T20:48:51.211Z,11.30
2017-09-13T20:51:18.751Z,11.30
2017-09-13T20:53:46.270Z,11.30
2017-09-13T20:56:14.578Z,11.30
2017-09-13T20:58:42.099Z,11.30
2017-09-13T21:01:09.641Z,11.30
2017-09-13T21:03:37.164Z,11.30
2017-09-13T21:06:04.708Z,11.30
2017-09-13T21:08:32.219Z,11.30
2017-09-13T21:10:59.766Z,11.20
2017-09-13T21:13:27.286Z,11.20
2017-09-13T21:15:54.822Z,11.30
2017-09-13T21:18:23.111Z,11.20
2017-09-13T21:20:51.415Z,11.20
2017-09-13T21:23:18.933Z,11.20
2017-09-13T21:25:46.471Z,11.20
2017-09-13T21:28:13.995Z,11.20
2017-09-13T21:30:41.541Z,11.20
2017-09-13T21:33:09.058Z,11.30
2017-09-13T21:35:36.595Z,11.20
2017-09-13T21:38:04.112Z,11.20
2017-09-13T21:40:32.419Z,11.20
2017-09-13T21:42:59.940Z,11.20
2017-09-13T21:45:28.254Z,11.20
2017-09-13T21:47:55.770Z,11.20
2017-09-13T21:50:24.074Z,11.20
2017-09-13T21:52:51.595Z,11.20
2017-09-13T21:55:19.137Z,11.20
2017-09-13T21:57:46.664Z,11.20
2017-09-13T22:00:14.200Z,11.20
2017-09-13T22:02:42.492Z,11.20
2017-09-13T22:05:10.800Z,11.20
2017-09-13T22:07:38.317Z,11.20
2017-09-13T22:10:06.618Z,11.30
2017-09-13T22:12:34.140Z,11.20
2017-09-13T22:15:01.674Z,11.30
2017-09-13T22:17:29.191Z,11.30
2017-09-13T22:19:56.727Z,11.30
2017-09-13T22:22:25.019Z,11.30
2017-09-13T22:24:53.364Z,11.30
2017-09-13T22:27:20.885Z,11.30
2017-09-13T22:29:48.427Z,11.30
2017-09-13T22:32:15.948Z,11.30
2017-09-13T22:34:43.489Z,11.30
2017-09-13T22:37:11.005Z,11.30
2017-09-13T22:39:38.543Z,11.30
2017-09-13T22:42:06.059Z,11.30
2017-09-13T22:44:33.591Z,11.30
2017-09-13T22:47:01.105Z,11.30
2017-09-13T22:49:28.647Z,11.30
2017-09-13T22:51:56.934Z,11.40
2017-09-13T22:54:25.215Z,11.40
2017-09-13T22:56:53.531Z,11.30
2017-09-13T22:59:21.046Z,11.30
2017-09-13T23:01:49.353Z,11.40
2017-09-13T23:04:16.875Z,11.40
2017-09-13T23:06:45.173Z,11.40
2017-09-13T23:09:12.691Z,11.40
2017-09-13T23:11:40.228Z,11.40
2017-09-13T23:14:07.743Z,11.40
2017-09-13T23:16:35.288Z,11.40
2017-09-13T23:19:03.574Z,11.40
2017-09-13T23:21:31.161Z,11.40
2017-09-13T23:23:58.676Z,11.40
2017-09-13T23:26:26.983Z,11.40
2017-09-13T23:28:54.508Z,11.40
2017-09-13T23:31:22.814Z,11.40
2017-09-13T23:33:50.331Z,11.40
2017-09-13T23:36:17.866Z,11.50
2017-09-13T23:38:45.384Z,11.40
2017-09-13T23:41:12.999Z,11.40
2017-09-13T23:43:40.522Z,11.40
2017-09-13T23:46:08.063Z,11.40
2017-09-13T23:48:35.588Z,11.50
2017-09-13T23:51:03.118Z,11.50
2017-09-13T23:53:30.641Z,11.40
2017-09-13T23:55:58.174Z,11.40
2017-09-13T23:58:25.690Z,11.40
